地図

経路データ

SID SEASON NUMBER BASIN SUBBASIN NAME ISO_TIME NATURE LAT LON WMO_WIND WMO_PRES WMO_AGENCY TRACK_TYPE DIST2LAND LANDFALL IFLAG USA_AGENCY USA_ATCF_ID USA_LAT USA_LON USA_RECORD USA_STATUS USA_WIND USA_PRES USA_SSHS USA_R34_NE USA_R34_SE USA_R34_SW USA_R34_NW USA_R50_NE USA_R50_SE USA_R50_SW USA_R50_NW USA_R64_NE USA_R64_SE USA_R64_SW USA_R64_NW USA_POCI USA_ROCI USA_RMW USA_EYE TOKYO_LAT TOKYO_LON TOKYO_GRADE TOKYO_WIND TOKYO_PRES TOKYO_R50_DIR TOKYO_R50_LONG TOKYO_R50_SHORT TOKYO_R30_DIR TOKYO_R30_LONG TOKYO_R30_SHORT TOKYO_LAND CMA_LAT CMA_LON CMA_CAT CMA_WIND CMA_PRES HKO_LAT HKO_LON HKO_CAT HKO_WIND HKO_PRES NEWDELHI_LAT NEWDELHI_LON NEWDELHI_GRADE NEWDELHI_WIND NEWDELHI_PRES NEWDELHI_CI NEWDELHI_DP NEWDELHI_POCI REUNION_LAT REUNION_LON REUNION_TYPE REUNION_WIND REUNION_PRES REUNION_TNUM REUNION_CI REUNION_RMW REUNION_R34_NE REUNION_R34_SE REUNION_R34_SW REUNION_R34_NW REUNION_R50_NE REUNION_R50_SE REUNION_R50_SW REUNION_R50_NW REUNION_R64_NE REUNION_R64_SE REUNION_R64_SW REUNION_R64_NW BOM_LAT BOM_LON BOM_TYPE BOM_WIND BOM_PRES BOM_TNUM BOM_CI BOM_RMW BOM_R34_NE BOM_R34_SE BOM_R34_SW BOM_R34_NW BOM_R50_NE BOM_R50_SE BOM_R50_SW BOM_R50_NW BOM_R64_NE BOM_R64_SE BOM_R64_SW BOM_R64_NW BOM_ROCI BOM_POCI BOM_EYE BOM_POS_METHOD BOM_PRES_METHOD NADI_LAT NADI_LON NADI_CAT NADI_WIND NADI_PRES WELLINGTON_LAT WELLINGTON_LON WELLINGTON_WIND WELLINGTON_PRES DS824_LAT DS824_LON DS824_STAGE DS824_WIND DS824_PRES TD9636_LAT TD9636_LON TD9636_STAGE TD9636_WIND TD9636_PRES TD9635_LAT TD9635_LON TD9635_WIND TD9635_PRES TD9635_ROCI NEUMANN_LAT NEUMANN_LON NEUMANN_CLASS NEUMANN_WIND NEUMANN_PRES MLC_LAT MLC_LON MLC_CLASS MLC_WIND MLC_PRES USA_GUST BOM_GUST BOM_GUST_PER REUNION_GUST REUNION_GUST_PER USA_SEAHGT USA_SEARAD_NE USA_SEARAD_SE USA_SEARAD_SW USA_SEARAD_NW STORM_SPEED STORM_DIR
1925281N11123 1925 52 WP MM NOT_NAMED 1925-10-07 22:00:00 NR 10.6000 122.800 main 10 0 __________O___ -1 10.6000 122.800 2 14 313
1925281N11123 1925 52 WP MM NOT_NAMED 1925-10-08 00:00:00 NR 10.9209 122.450 main 0 0 __________P___ -1 10.9209 122.450 2 14 313
1925281N11123 1925 52 WP MM NOT_NAMED 1925-10-08 03:00:00 NR 11.4065 121.923 main 21 15 __________P___ -1 11.4065 121.923 2 14 314
1925281N11123 1925 52 WP MM NOT_NAMED 1925-10-08 06:00:00 NR 11.9042 121.398 main 40 0 __________P___ -1 11.9042 121.398 2 15 315
1925281N11123 1925 52 WP MM NOT_NAMED 1925-10-08 09:00:00 NR 12.4217 120.874 main 10 15 __________P___ -1 12.4217 120.874 2 15 316
1925281N11123 1925 52 WP MM NOT_NAMED 1925-10-08 10:00:00 NR 12.6000 120.700 main 15 15 __________O___ -1 12.6000 120.700 2 15 317
1925281N11123 1925 52 WP MM NOT_NAMED 1925-10-08 12:00:00 NR 12.9652 120.354 main 24 24 __________P___ -1 12.9652 120.354 2 15 318
1925281N11123 1925 52 WP MM NOT_NAMED 1925-10-08 15:00:00 NR 13.5200 119.854 main 44 58 __________P___ -1 13.5200 119.854 2 14 320
1925281N11123 1925 52 WP MM NOT_NAMED 1925-10-08 18:00:00 NR 14.0579 119.398 main 108 108 __________P___ -1 14.0579 119.398 2 13 321
1925281N11123 1925 52 WP MM NOT_NAMED 1925-10-08 21:00:00 NR 14.5506 119.010 main 120 120 __________P___ -1 14.5506 119.010 2 12 323
1925281N11123 1925 52 WP MM NOT_NAMED 1925-10-08 22:00:00 NR 14.7000 118.900 main 129 129 __________O___ -1 14.7000 118.900 2 10 323
1925281N11123 1925 52 WP MM NOT_NAMED 1925-10-09 00:00:00 NR 14.9567 118.696 main 136 136 __________P___ -1 14.9567 118.696 2 9 324
1925281N11123 1925 52 WP MM NOT_NAMED 1925-10-09 03:00:00 NR 15.2916 118.460 main 150 150 __________P___ -1 15.2916 118.460 2 7 329
1925281N11123 1925 52 WP MM NOT_NAMED 1925-10-09 06:00:00 NR 15.5939 118.302 main 156 153 __________P___ -1 15.5939 118.302 2 7 339
1925281N11123 1925 52 WP MM NOT_NAMED 1925-10-09 09:00:00 NR 15.8947 118.215 main 160 160 __________P___ -1 15.8947 118.215 2 6 347
1925281N11123 1925 52 WP MM NOT_NAMED 1925-10-09 10:00:00 NR 16.0000 118.200 main 160 160 __________O___ -1 16.0000 118.200 2 7 349
1925281N11123 1925 52 WP MM NOT_NAMED 1925-10-09 12:00:00 NR 16.2487 118.138 main 172 174 __________P___ -1 16.2487 118.138 2 8 352
1925281N11123 1925 52 WP MM NOT_NAMED 1925-10-09 15:00:00 NR 16.6348 118.100 main 183 186 __________P___ -1 16.6348 118.100 2 8 1
1925281N11123 1925 52 WP MM NOT_NAMED 1925-10-09 18:00:00 NR 17.0199 118.151 main 187 187 __________P___ -1 17.0199 118.151 2 8 15
1925281N11123 1925 52 WP MM NOT_NAMED 1925-10-09 21:00:00 NR 17.3856 118.316 main 201 193 __________P___ -1 17.3856 118.316 2 8 26
1925281N11123 1925 52 WP MM NOT_NAMED 1925-10-09 22:00:00 NR 17.5000 118.400 main 200 180 __________O___ -1 17.5000 118.400 2 10 37
1925281N11123 1925 52 WP MM NOT_NAMED 1925-10-10 00:00:00 NR 17.7642 118.613 main 181 148 __________P___ -1 17.7642 118.613 2 11 44
1925281N11123 1925 52 WP MM NOT_NAMED 1925-10-10 03:00:00 NR 18.1363 119.040 main 148 100 __________P___ -1 18.1363 119.040 2 11 53
1925281N11123 1925 52 WP MM NOT_NAMED 1925-10-10 06:00:00 NR 18.4293 119.556 main 100 57 __________P___ -1 18.4293 119.556 2 11 66
1925281N11123 1925 52 WP MM NOT_NAMED 1925-10-10 09:00:00 NR 18.5871 120.113 main 57 38 __________P___ -1 18.5871 120.113 2 11 76
1925281N11123 1925 52 WP MM NOT_NAMED 1925-10-10 10:00:00 NR 18.6000 120.300 main 38 10 __________O___ -1 18.6000 120.300 2 11 96
1925281N11123 1925 52 WP MM NOT_NAMED 1925-10-10 12:00:00 NR 18.5322 120.677 main 10 0 __________P___ -1 18.5322 120.677 2 11 109
1925281N11123 1925 52 WP MM NOT_NAMED 1925-10-10 15:00:00 NR 18.2914 121.255 main 0 0 __________P___ -1 18.2914 121.255 2 12 118
1925281N11123 1925 52 WP MM NOT_NAMED 1925-10-10 18:00:00 NR 17.9554 121.803 main 0 0 __________P___ -1 17.9554 121.803 2 12 125
1925281N11123 1925 52 WP MM NOT_NAMED 1925-10-10 21:00:00 NR 17.6056 122.270 main 21 21 __________P___ -1 17.6056 122.270 2 11 129
1925281N11123 1925 52 WP MM NOT_NAMED 1925-10-10 22:00:00 NR 17.5000 122.400 main 22 15 __________O___ -1 17.5000 122.400 7 8 130
1925281N11123 1925 52 WP MM NOT_NAMED 1925-10-11 00:00:00 NR 17.3519 122.591 main 24 21 __________P___ -1 17.3519 122.591 7 6 133
1925281N11123 1925 52 WP MM NOT_NAMED 1925-10-11 03:00:00 NR 17.1555 122.789 main 38 33 __________P___ -1 17.1555 122.789 7 5 139
1925281N11123 1925 52 WP MM NOT_NAMED 1925-10-11 06:00:00 NR 16.9871 122.926 main 42 42 __________P___ -1 16.9871 122.926 7 4 141
1925281N11123 1925 52 WP MM NOT_NAMED 1925-10-11 09:00:00 NR 16.8431 123.052 main 64 64 __________P___ -1 16.8431 123.052 7 4 138
1925281N11123 1925 52 WP MM NOT_NAMED 1925-10-11 10:00:00 NR 16.8000 123.100 main 64 64 __________O___ -1 16.8000 123.100 7 5 132
1925281N11123 1925 52 WP MM NOT_NAMED 1925-10-11 12:00:00 NR 16.6899 123.233 main 77 77 __________P___ -1 16.6899 123.233 7 5 128
1925281N11123 1925 52 WP MM NOT_NAMED 1925-10-11 15:00:00 NR 16.5432 123.446 main 105 115 __________P___ -1 16.5432 123.446 7 5 121
1925281N11123 1925 52 WP MM NOT_NAMED 1925-10-11 18:00:00 NR 16.4379 123.674 main 139 139 __________P___ -1 16.4379 123.674 7 5 108
1925281N11123 1925 52 WP MM NOT_NAMED 1925-10-11 21:00:00 NR 16.3961 123.916 main 159 159 __________P___ -1 16.3961 123.916 7 5 97
1925281N11123 1925 52 WP MM NOT_NAMED 1925-10-11 22:00:00 NR 16.4000 124.000 main 169 169 __________O___ -1 16.4000 124.000 7 5 81
1925281N11123 1925 52 WP MM NOT_NAMED 1925-10-12 00:00:00 NR 16.4351 124.180 main 189 186 __________P___ -1 16.4351 124.180 7 6 71
1925281N11123 1925 52 WP MM NOT_NAMED 1925-10-12 03:00:00 NR 16.5506 124.462 main 215 215 __________P___ -1 16.5506 124.462 7 6 62
1925281N11123 1925 52 WP MM NOT_NAMED 1925-10-12 06:00:00 NR 16.7221 124.746 main 235 245 __________P___ -1 16.7221 124.746 7 7 55
1925281N11123 1925 52 WP MM NOT_NAMED 1925-10-12 09:00:00 NR 16.9277 125.016 main 266 265 __________P___ -1 16.9277 125.016 7 7 51
1925281N11123 1925 52 WP MM NOT_NAMED 1925-10-12 10:00:00 NR 17.0000 125.100 main 276 276 __________O___ -1 17.0000 125.100 7 5 49
1925281N11123 1925 52 WP MM NOT_NAMED 1925-10-12 12:00:00 NR 17.0851 125.207 main 287 287 __________P___ -1 17.0851 125.207 7 4 46
1925281N11123 1925 52 WP MM NOT_NAMED 1925-10-12 15:00:00 NR 17.2307 125.348 main 298 309 __________P___ -1 17.2307 125.348 7 5 40
1925281N11123 1925 52 WP MM NOT_NAMED 1925-10-12 18:00:00 NR 17.4401 125.519 main 321 323 __________P___ -1 17.4401 125.519 7 7 38
1925281N11123 1925 52 WP MM NOT_NAMED 1925-10-12 21:00:00 NR 17.7604 125.781 main 361 361 __________P___ -1 17.7604 125.781 7 9 38
1925281N11123 1925 52 WP MM NOT_NAMED 1925-10-12 22:00:00 NR 17.9000 125.900 main 374 374 __________O___ -1 17.9000 125.900 7 12 40
1925281N11123 1925 52 WP MM NOT_NAMED 1925-10-13 00:00:00 NR 18.2263 126.194 main 412 411 __________P___ -1 18.2263 126.194 7 15 41
1925281N11123 1925 52 WP MM NOT_NAMED 1925-10-13 03:00:00 NR 18.8286 126.742 main 465 477 __________P___ -1 18.8286 126.742 7 17 41
1925281N11123 1925 52 WP MM NOT_NAMED 1925-10-13 06:00:00 NR 19.5387 127.398 main 550 552 __________P___ -1 19.5387 127.398 7 20 41
1925281N11123 1925 52 WP MM NOT_NAMED 1925-10-13 09:00:00 NR 20.3258 128.139 main 644 657 __________P___ -1 20.3258 128.139 7 21 42
1925281N11123 1925 52 WP MM NOT_NAMED 1925-10-13 10:00:00 NR 20.6000 128.400 main 685 685 __________O___ -1 20.6000 128.400 7 23 42
1925281N11123 1925 52 WP MM NOT_NAMED 1925-10-13 12:00:00 NR 21.1698 128.940 main 758 767 __________P___ -1 21.1698 128.940 7 24 42
1925281N11123 1925 52 WP MM NOT_NAMED 1925-10-13 15:00:00 NR 22.0756 129.814 main 849 855 __________P___ -1 22.0756 129.814 7 25 42
1925281N11123 1925 52 WP MM NOT_NAMED 1925-10-13 18:00:00 NR 22.9862 130.722 main 893 808 __________P___ -1 22.9862 130.722 7 24 43
1925281N11123 1925 52 WP MM NOT_NAMED 1925-10-13 21:00:00 NR 23.8391 131.615 main 808 779 __________P___ -1 23.8391 131.615 7 23 44
1925281N11123 1925 52 WP MM NOT_NAMED 1925-10-13 22:00:00 NR 24.1000 131.900 main 779 733 __________O___ -1 24.1000 131.900 7 21 44
1925281N11123 1925 52 WP MM NOT_NAMED 1925-10-14 00:00:00 NR 24.5782 132.402 main 733 685 __________P___ -1 24.5782 132.402 7 19 45
1925281N11123 1925 52 WP MM NOT_NAMED 1925-10-14 03:00:00 NR 25.2219 133.115 main 688 654 __________P___ -1 25.2219 133.115 7 18 47
1925281N11123 1925 52 WP MM NOT_NAMED 1925-10-14 06:00:00 NR 25.7810 133.814 main 654 642 __________P___ -1 25.7810 133.814 7 17 51
1925281N11123 1925 52 WP MM NOT_NAMED 1925-10-14 09:00:00 NR 26.2586 134.543 main 642 643 __________P___ -1 26.2586 134.543 7 16 55
1925281N11123 1925 52 WP MM NOT_NAMED 1925-10-14 10:00:00 NR 26.4000 134.800 main 648 643 __________O___ -1 26.4000 134.800 7 17 59
1925281N11123 1925 52 WP MM NOT_NAMED 1925-10-14 12:00:00 NR 26.6885 135.356 main 652 649 __________P___ -1 26.6885 135.356 7 17 63
1925281N11123 1925 52 WP MM NOT_NAMED 1925-10-14 15:00:00 NR 27.0527 136.232 main 668 674 __________P___ -1 27.0527 136.232 7 17 68
1925281N11123 1925 52 WP MM NOT_NAMED 1925-10-14 18:00:00 NR 27.3375 137.147 main 691 680 __________P___ -1 27.3375 137.147 7 17 73
1925281N11123 1925 52 WP MM NOT_NAMED 1925-10-14 21:00:00 NR 27.5465 138.085 main 694 683 __________P___ -1 27.5465 138.085 7 17 77
1925281N11123 1925 52 WP MM NOT_NAMED 1925-10-14 22:00:00 NR 27.6000 138.400 main 693 693 __________O___ -1 27.6000 138.400 2 17 81
1925281N11123 1925 52 WP MM NOT_NAMED 1925-10-15 00:00:00 NR 27.6872 139.035 main 705 709 __________P___ -1 27.6872 139.035 2 17 84
1925281N11123 1925 52 WP MM NOT_NAMED 1925-10-15 03:00:00 NR 27.7555 139.998 main 742 747 __________P___ -1 27.7555 139.998 2 17 87
1925281N11123 1925 52 WP MM NOT_NAMED 1925-10-15 06:00:00 NR 27.7790 140.958 main 786 786 __________P___ -1 27.7790 140.958 2 17 89
1925281N11123 1925 52 WP MM NOT_NAMED 1925-10-15 09:00:00 NR 27.7920 141.895 main 813 813 __________P___ -1 27.7920 141.895 2 16 89
1925281N11123 1925 52 WP MM NOT_NAMED 1925-10-15 10:00:00 NR 27.8000 142.200 main 821 821 __________O___ -1 27.8000 142.200 2 16 87
1925281N11123 1925 52 WP MM NOT_NAMED 1925-10-15 12:00:00 NR 27.8271 142.795 main 838 838 __________P___ -1 27.8271 142.795 2 16 86
1925281N11123 1925 52 WP MM NOT_NAMED 1925-10-15 15:00:00 NR 27.8916 143.660 main 859 859 __________P___ -1 27.8916 143.660 2 15 84
1925281N11123 1925 52 WP MM NOT_NAMED 1925-10-15 18:00:00 NR 27.9755 144.499 main 884 884 __________P___ -1 27.9755 144.499 2 15 83
1925281N11123 1925 52 WP MM NOT_NAMED 1925-10-15 21:00:00 NR 28.0687 145.326 main 914 919 __________P___ -1 28.0687 145.326 2 15 83
1925281N11123 1925 52 WP MM NOT_NAMED 1925-10-15 22:00:00 NR 28.1000 145.600 main 930 __________O___ -1 28.1000 145.600 7 15 83

デジタル台風データ・検索

IBTrACS Databaseについて

本データベースは、米国NOAAが公開する1842年以降の世界の熱帯低気圧のベストトラックデータアーカイブInternational Best Track Archive for Climate Stewardship (IBTrACS)を、ウェブで閲覧しやすい形式に変換したものです。

最終更新日:2021-11-26